Time;durP1;ratioP1;P1;durP2;ratioP2;P2;SDS_P1;SDS_P2;PMS_P1;PMS_P2;Temp;Humidity;BMP_temperature;BMP_pressure;BME280_temperature;BME280_humidity;BME280_pressure;Samples;Min_cycle;Max_cycle;Signal;HPM_P1;HPM_P2
2023/10/28 00:00:57;;;;;;;11.90;5.80;;;;;;;15.24;72.60;95797.62;108898;1260;72689;-23
2023/10/28 00:03:25;;;;;;;4.90;1.40;;;;;;;14.88;72.97;95810.20;108909;1262;58862;-23
2023/10/28 00:05:53;;;;;;;3.60;1.00;;;;;;;14.69;73.05;95803.73;108858;1260;59119;-22
2023/10/28 00:08:21;;;;;;;2.80;0.80;;;;;;;14.54;73.33;95821.02;108886;1261;73062;-23
2023/10/28 00:10:49;;;;;;;2.20;0.60;;;;;;;14.66;71.69;95806.05;108763;1260;74354;-23
2023/10/28 00:13:16;;;;;;;1.60;1.00;;;;;;;14.65;71.32;95830.93;108837;1261;72696;-23
2023/10/28 00:15:44;;;;;;;0.40;0.40;;;;;;;14.45;72.65;95833.64;108742;1262;58777;-23
2023/10/28 00:18:12;;;;;;;2.40;0.40;;;;;;;14.28;72.15;95791.83;108769;1264;58841;-23
2023/10/28 00:20:41;;;;;;;4.00;2.00;;;;;;;14.04;72.42;95797.19;109381;1254;73012;-22
2023/10/28 00:23:08;;;;;;;0.20;0.20;;;;;;;13.87;73.42;95804.25;109209;1254;73613;-23
2023/10/28 00:25:37;;;;;;;3.80;1.50;;;;;;;14.07;73.22;95796.23;109285;1254;72737;-22
2023/10/28 00:28:04;;;;;;;4.20;0.70;;;;;;;14.16;72.43;95779.88;109410;1254;58869;-22
2023/10/28 00:30:32;;;;;;;9.20;4.90;;;;;;;13.90;73.11;95789.39;109187;1254;59106;-22
2023/10/28 00:32:59;;;;;;;1.70;0.40;;;;;;;13.71;73.33;95775.05;109369;1254;73523;-22
2023/10/28 00:35:30;;;;;;;2.30;1.00;;;;;;;13.43;73.98;95758.95;109375;1254;73041;-22
2023/10/28 00:37:58;;;;;;;1.90;0.50;;;;;;;13.29;74.69;95779.27;109186;1254;72681;-22
2023/10/28 00:40:26;;;;;;;0.20;0.20;;;;;;;13.54;73.60;95768.44;109198;1253;58857;-22
2023/10/28 00:42:53;;;;;;;1.60;0.40;;;;;;;13.48;73.13;95755.52;109182;1254;59990;-22
2023/10/28 00:45:21;;;;;;;0.20;0.20;;;;;;;13.19;73.78;95748.41;109362;1254;73063;-22
2023/10/28 00:47:49;;;;;;;0.90;0.20;;;;;;;12.95;74.31;95745.77;109407;1254;73276;-22
2023/10/28 00:50:16;;;;;;;0.50;0.20;;;;;;;12.70;75.26;95759.16;109335;1254;72702;-22
2023/10/28 00:52:48;;;;;;;0.10;0.10;;;;;;;12.39;76.32;95736.02;109359;1254;59054;-22
2023/10/28 00:55:15;;;;;;;1.40;0.10;;;;;;;12.69;75.22;95730.46;109161;1253;60060;-22
2023/10/28 00:57:43;;;;;;;0.90;0.10;;;;;;;12.78;74.63;95742.36;109351;1254;73044;-22
2023/10/28 01:00:14;;;;;;;4.00;0.30;;;;;;;12.75;73.98;95713.29;109165;1254;73249;-21
2023/10/28 01:02:42;;;;;;;0.20;0.10;;;;;;;12.64;74.39;95724.27;109390;1254;72679;-24
2023/10/28 01:05:11;;;;;;;0.60;0.20;;;;;;;12.47;74.92;95701.73;109173;1254;58871;-22
2023/10/28 01:07:43;;;;;;;0.30;0.20;;;;;;;12.40;76.00;95698.84;109099;1254;59199;-22
2023/10/28 01:10:11;;;;;;;1.50;0.30;;;;;;;12.79;74.67;95718.73;109392;1254;72857;-22
2023/10/28 01:12:39;;;;;;;0.20;0.10;;;;;;;12.91;74.05;95674.38;109387;1253;72817;-21
2023/10/28 01:15:07;;;;;;;2.00;0.30;;;;;;;12.75;74.86;95702.36;109107;1258;72700;-21
2023/10/28 01:17:35;;;;;;;0.50;0.20;;;;;;;12.48;76.03;95693.77;109134;1256;60095;-22
2023/10/28 01:20:03;;;;;;;0.30;0.20;;;;;;;12.20;77.48;95685.88;109156;1255;58906;-22
2023/10/28 01:22:30;;;;;;;0.80;0.30;;;;;;;12.40;77.22;95689.48;109189;1256;71850;-22
2023/10/28 01:24:58;;;;;;;0.90;0.30;;;;;;;12.42;76.94;95692.83;109172;1256;73245;-22
2023/10/28 01:27:26;;;;;;;0.80;0.40;;;;;;;12.31;77.63;95691.60;109262;1255;71075;-22
2023/10/28 01:29:55;;;;;;;2.20;0.20;;;;;;;12.14;78.45;95705.16;109126;1256;60031;-22
2023/10/28 01:39:48;;;;;;;0.10;0.10;;;;;;;11.93;82.19;95719.95;103620;1278;615596;-23
2023/10/28 01:42:16;;;;;;;1.00;0.20;;;;;;;11.69;83.85;95722.88;105288;1274;61180;-23
2023/10/28 01:44:43;;;;;;;0.20;0.20;;;;;;;11.57;85.49;95705.95;105592;1267;61186;-23
2023/10/28 01:47:10;;;;;;;0.10;0.10;;;;;;;11.65;85.58;95722.10;105611;1263;72119;-22
2023/10/28 01:49:40;;;;;;;0.20;0.20;;;;;;;11.42;86.62;95702.13;105602;1267;74305;-22
2023/10/28 01:52:09;;;;;;;0.10;0.10;;;;;;;11.26;88.25;95733.73;102863;1258;3354140;-22
2023/10/28 02:03:56;;;;;;;1.80;0.20;;;;;;;11.22;88.85;95719.29;105624;1259;73615;-21
2023/10/28 02:06:23;;;;;;;0.30;0.20;;;;;;;11.29;88.62;95698.98;105666;1258;74329;-21
2023/10/28 02:08:50;;;;;;;0.40;0.20;;;;;;;10.97;90.21;95688.95;105649;1262;73185;-20
2023/10/28 02:11:17;;;;;;;0.10;0.10;;;;;;;10.62;96.55;95695.18;105604;1258;61961;-19
2023/10/28 02:13:45;;;;;;;0.10;0.10;;;;;;;-44.76;59.60;57378.92;85113;1263;11042973;-19
2023/10/28 02:16:12;;;;;;;0.50;0.30;;;;;;;-72.45;39.40;38290.40;71522;1261;30302857;-19
2023/10/28 02:18:40;;;;;;;0.10;0.10;;;;;;;10.40;100.00;95732.27;105354;1261;61223;-19
2023/10/28 08:35:33;;;;;;;1.80;1.30;;;;;;;7.95;100.00;96959.42;103569;1280;613856;-24
2023/10/28 08:38:05;;;;;;;1.50;1.00;;;;;;;8.67;100.00;97136.66;104800;1267;62047;-24
2023/10/28 08:40:33;;;;;;;1.10;0.80;;;;;;;9.54;100.00;97164.08;105180;1264;61206;-23
2023/10/28 08:43:03;;;;;;;1.20;1.10;;;;;;;9.61;100.00;97160.98;104859;1264;71583;-25
2023/10/28 08:45:30;;;;;;;2.50;1.10;;;;;;;9.72;100.00;97141.40;105183;1264;74284;-23
2023/10/28 08:47:58;;;;;;;1.00;0.90;;;;;;;9.55;100.00;97162.27;102790;1264;3308585;-25
2023/10/28 08:50:25;;;;;;;1.80;1.10;;;;;;;9.50;100.00;97167.45;105232;1266;61153;-24
2023/10/28 08:52:55;;;;;;;2.10;1.10;;;;;;;9.36;100.00;97175.27;105139;1262;61275;-24
2023/10/28 08:55:25;;;;;;;0.90;0.80;;;;;;;9.52;100.00;97174.86;104879;1264;73135;-24
2023/10/28 08:57:52;;;;;;;0.90;0.60;;;;;;;10.07;100.00;97177.46;105211;1264;75603;-25
2023/10/28 09:00:22;;;;;;;1.20;0.90;;;;;;;10.33;100.00;97188.56;105240;1264;72656;-25
2023/10/28 09:02:49;;;;;;;1.30;1.00;;;;;;;10.08;100.00;97162.81;104854;1263;61068;-25
2023/10/28 09:05:16;;;;;;;1.60;1.00;;;;;;;10.04;100.00;97188.44;105155;1266;61192;-25
2023/10/28 09:07:45;;;;;;;1.00;0.90;;;;;;;10.41;100.00;97205.06;105222;1263;72859;-25
2023/10/28 09:10:13;;;;;;;1.40;1.00;;;;;;;10.60;100.00;97219.48;105227;1264;74293;-26
2023/10/28 09:12:40;;;;;;;1.30;1.10;;;;;;;10.38;100.00;97199.83;105182;1268;72705;-25
2023/10/28 09:15:11;;;;;;;1.20;0.90;;;;;;;10.45;100.00;97223.40;105148;1262;61843;-24
2023/10/28 09:17:41;;;;;;;1.70;1.00;;;;;;;10.73;100.00;97220.17;105235;1264;61711;-26
2023/10/28 09:20:11;;;;;;;1.80;1.20;;;;;;;11.14;100.00;97227.91;105198;1263;73203;-26
2023/10/28 09:22:42;;;;;;;1.20;1.00;;;;;;;10.94;100.00;97216.42;105081;1269;72781;-25
2023/10/28 09:25:10;;;;;;;1.50;1.00;;;;;;;10.84;100.00;97239.21;105039;1263;71434;-25
2023/10/28 09:27:38;;;;;;;1.70;1.30;;;;;;;10.96;100.00;97250.74;105033;1269;61190;-25
2023/10/28 09:30:07;;;;;;;1.50;1.10;;;;;;;10.76;95.12;97161.85;104946;1264;61106;-25
2023/10/28 09:32:35;;;;;;;2.00;1.60;;;;;;;10.63;89.34;97182.35;104935;1264;72703;-26
2023/10/28 09:35:05;;;;;;;1.20;0.90;;;;;;;10.58;89.00;97191.88;105097;1268;74294;-25
2023/10/28 09:37:37;;;;;;;1.90;1.20;;;;;;;11.08;86.90;97198.84;104920;1265;73089;-26
2023/10/28 09:40:06;;;;;;;2.30;1.30;;;;;;;11.38;83.14;97183.18;104869;1270;61176;-26
2023/10/28 09:42:34;;;;;;;1.30;1.10;;;;;;;11.29;81.77;97194.27;105066;1267;61827;-26
2023/10/28 09:45:06;;;;;;;1.40;1.30;;;;;;;11.04;79.04;97185.41;104810;1266;71961;-26
2023/10/28 09:47:53;;;;;;;1.90;1.40;;;;;;;10.90;81.37;97208.54;104865;1266;74357;-26
2023/10/28 09:50:21;;;;;;;1.70;1.20;;;;;;;10.60;82.39;97222.76;105154;1263;72457;-27
2023/10/28 09:52:51;;;;;;;1.80;1.20;;;;;;;10.94;81.31;97218.89;104839;1264;61847;-27
2023/10/28 09:55:20;;;;;;;1.50;1.20;;;;;;;10.85;80.12;97219.52;104827;1272;61221;-27
2023/10/28 09:57:47;;;;;;;1.70;1.20;;;;;;;10.74;79.87;97204.63;105014;1268;71526;-27
2023/10/28 10:00:19;;;;;;;1.80;1.40;;;;;;;10.52;80.46;97213.71;104998;1261;74794;-27
2023/10/28 10:03:08;;;;;;;1.90;1.10;;;;;;;10.44;82.40;97230.27;105188;1266;72695;-27
2023/10/28 10:05:53;;;;;;;1.40;1.10;;;;;;;10.81;82.59;97241.10;105186;1260;61157;-27
2023/10/28 10:08:24;;;;;;;1.90;1.00;;;;;;;11.19;80.17;97241.80;105154;1267;61116;-27
2023/10/28 10:10:53;;;;;;;2.10;0.80;;;;;;;11.28;78.91;97228.42;105337;1257;73079;-27
2023/10/28 10:13:21;;;;;;;2.30;1.20;;;;;;;11.11;78.23;97218.55;105506;1257;74164;-28
2023/10/28 10:16:05;;;;;;;1.30;1.20;;;;;;;11.01;80.53;97248.23;105233;1257;72771;-28
2023/10/28 10:18:46;;;;;;;1.10;0.80;;;;;;;10.95;80.02;97245.45;105498;1257;62032;-28
2023/10/28 10:21:18;;;;;;;1.30;1.20;;;;;;;11.35;78.19;97243.78;105248;1265;61010;-28
2023/10/28 10:23:50;;;;;;;1.50;1.40;;;;;;;11.34;77.07;97248.90;105530;1257;73186;-28
2023/10/28 10:26:34;;;;;;;1.40;1.00;;;;;;;11.18;78.18;97248.06;105327;1264;74716;-28
2023/10/28 10:29:03;;;;;;;1.60;1.40;;;;;;;10.96;78.86;97258.75;105499;1257;71444;-28
2023/10/28 10:31:32;;;;;;;1.30;1.10;;;;;;;10.89;81.48;97277.77;105269;1264;61102;-28
2023/10/28 10:34:09;;;;;;;1.00;0.90;;;;;;;10.96;80.49;97258.23;105321;1264;61122;-28
2023/10/28 10:36:41;;;;;;;1.30;1.20;;;;;;;11.09;78.68;97266.48;105498;1257;72919;-28
2023/10/28 10:39:16;;;;;;;1.60;1.20;;;;;;;10.99;79.08;97277.92;105509;1257;73332;-28
2023/10/28 10:41:50;;;;;;;1.10;1.00;;;;;;;10.95;79.70;97288.19;105304;1260;71554;-29
2023/10/28 10:44:34;;;;;;;1.40;1.20;;;;;;;10.85;79.87;97293.04;105497;1257;61054;-28
2023/10/28 10:47:01;;;;;;;1.20;1.00;;;;;;;10.72;80.44;97295.61;105361;1263;61109;-28
2023/10/28 10:49:30;;;;;;;1.40;0.80;;;;;;;10.90;79.33;97294.70;105534;1257;72838;-28
2023/10/28 10:51:59;;;;;;;1.70;1.30;;;;;;;11.04;78.49;97292.89;105500;1263;73441;-28
2023/10/28 10:54:34;;;;;;;1.80;1.20;;;;;;;10.99;78.89;97300.41;105506;1263;72367;-27
2023/10/28 10:57:02;;;;;;;1.70;1.40;;;;;;;11.03;78.77;97307.09;105270;1257;61176;-29
2023/10/28 10:59:32;;;;;;;1.10;0.90;;;;;;;11.36;79.39;97308.46;105336;1264;61129;-28
2023/10/28 11:02:02;;;;;;;1.40;1.30;;;;;;;12.04;75.64;97297.28;105330;1257;72347;-29
2023/10/28 11:04:31;;;;;;;1.30;1.00;;;;;;;12.41;72.67;97295.66;105529;1257;74350;-29
2023/10/28 11:06:58;;;;;;;2.40;1.40;;;;;;;12.36;72.65;97302.73;105277;1257;72674;-29
2023/10/28 11:09:29;;;;;;;1.50;1.10;;;;;;;12.06;73.64;97303.95;105493;1259;61051;-29
2023/10/28 11:11:56;;;;;;;1.30;1.00;;;;;;;11.59;74.48;97300.20;105606;1259;61108;-29
2023/10/28 11:14:24;;;;;;;1.40;1.10;;;;;;;11.50;74.74;97301.30;105484;1257;73097;-29
2023/10/28 11:16:51;;;;;;;1.10;1.00;;;;;;;11.29;74.57;97314.09;105394;1257;74408;-29
2023/10/28 11:19:19;;;;;;;1.30;1.10;;;;;;;11.18;75.03;97312.23;105619;1257;73002;-28
2023/10/28 11:21:46;;;;;;;1.90;1.00;;;;;;;11.20;76.25;97321.44;105547;1260;61061;-29
2023/10/28 11:24:14;;;;;;;1.40;1.00;;;;;;;11.79;76.14;97325.52;105295;1265;61154;-29
2023/10/28 11:26:45;;;;;;;1.10;1.00;;;;;;;12.02;72.22;97300.95;105312;1257;72796;-29
2023/10/28 11:29:14;;;;;;;1.10;1.00;;;;;;;12.10;71.97;97312.23;105339;1257;74303;-29
2023/10/28 11:31:41;;;;;;;3.00;1.40;;;;;;;12.15;71.31;97330.26;105311;1256;72734;-28
2023/10/28 11:34:09;;;;;;;1.80;1.20;;;;;;;12.03;72.04;97339.58;105407;1260;61831;-29
2023/10/28 11:36:36;;;;;;;1.20;1.10;;;;;;;11.66;72.67;97337.29;105369;1263;61180;-29
2023/10/28 11:39:14;;;;;;;1.90;0.90;;;;;;;11.38;73.59;97359.63;105258;1258;71223;-29
2023/10/28 11:41:43;;;;;;;2.10;1.00;;;;;;;11.25;74.05;97353.20;105158;1257;74278;-28
2023/10/28 11:44:11;;;;;;;1.00;0.80;;;;;;;11.14;74.72;97360.52;105235;1260;72642;-28
2023/10/28 11:46:39;;;;;;;1.40;1.10;;;;;;;11.34;74.99;97370.92;105378;1257;61865;-29
2023/10/28 11:49:06;;;;;;;1.20;1.10;;;;;;;11.54;74.30;97379.64;105570;1261;61278;-29
2023/10/28 11:51:33;;;;;;;1.10;0.80;;;;;;;11.45;74.89;97382.95;105378;1257;73083;-29
2023/10/28 11:54:03;;;;;;;2.60;1.10;;;;;;;11.42;76.36;97410.11;105197;1263;74345;-29
2023/10/28 11:56:32;;;;;;;1.90;1.40;;;;;;;11.30;76.95;97396.66;105513;1257;72655;-28
2023/10/28 11:59:01;;;;;;;1.40;1.20;;;;;;;11.09;78.26;97398.10;105305;1257;61065;-28
2023/10/28 12:01:31;;;;;;;1.40;1.00;;;;;;;11.38;77.88;97415.98;105447;1263;61188;-29
2023/10/28 12:03:59;;;;;;;1.90;0.90;;;;;;;11.66;76.02;97415.19;105285;1265;71875;-29
2023/10/28 12:06:26;;;;;;;1.30;0.90;;;;;;;11.49;76.27;97412.83;105473;1257;74149;-29
2023/10/28 12:08:58;;;;;;;1.60;1.10;;;;;;;11.30;76.99;97419.77;105593;1257;74455;-29
2023/10/28 12:11:28;;;;;;;1.60;1.10;;;;;;;11.23;78.20;97435.56;105626;1257;61054;-28
2023/10/28 12:13:58;;;;;;;2.20;1.50;;;;;;;11.09;78.13;97421.20;105679;1263;61142;-29
2023/10/28 12:16:25;;;;;;;1.00;0.90;;;;;;;11.04;78.32;97435.66;105662;1254;73152;-29
2023/10/28 12:18:53;;;;;;;2.30;1.50;;;;;;;11.21;76.46;97431.50;105734;1254;74237;-29
2023/10/28 12:21:20;;;;;;;3.10;1.70;;;;;;;11.25;74.99;97430.08;105832;1254;72555;-29
2023/10/28 12:23:48;;;;;;;2.10;1.50;;;;;;;11.29;75.75;97459.70;105437;1254;61058;-29
2023/10/28 12:26:15;;;;;;;2.40;1.70;;;;;;;11.18;76.82;97463.89;105473;1260;61144;-28
2023/10/28 12:28:42;;;;;;;3.10;1.70;;;;;;;10.96;78.07;97463.77;105758;1254;72807;-29
2023/10/28 12:31:09;;;;;;;1.90;1.40;;;;;;;10.86;78.62;97469.20;105772;1254;74114;-29
2023/10/28 12:33:36;;;;;;;2.20;1.60;;;;;;;11.04;77.66;97477.46;105666;1254;72739;-28
2023/10/28 12:36:10;;;;;;;1.80;1.60;;;;;;;11.30;76.77;97482.33;105802;1256;61148;-29
2023/10/28 12:38:37;;;;;;;2.00;1.60;;;;;;;11.36;76.91;97486.52;105510;1254;61109;-29
2023/10/28 12:41:04;;;;;;;2.30;1.80;;;;;;;11.16;77.29;97484.95;105701;1257;72186;-28
2023/10/28 12:43:32;;;;;;;2.20;1.90;;;;;;;11.01;77.67;97480.27;105880;1254;74325;-29
2023/10/28 12:45:59;;;;;;;3.40;2.30;;;;;;;10.87;77.52;97482.97;105798;1254;72726;-28
2023/10/28 12:48:26;;;;;;;3.50;1.40;;;;;;;10.85;78.73;97493.45;105678;1254;61311;-29
2023/10/28 12:50:53;;;;;;;2.50;2.00;;;;;;;11.19;77.44;97495.89;105863;1256;61106;-29
2023/10/28 12:53:20;;;;;;;3.30;2.50;;;;;;;11.36;76.23;97482.26;105876;1254;73868;-29
2023/10/28 12:55:47;;;;;;;2.60;1.90;;;;;;;11.34;75.92;97496.16;105878;1254;74677;-29
2023/10/28 12:58:16;;;;;;;2.40;2.00;;;;;;;11.21;76.63;97503.14;105884;1253;72648;-29
2023/10/28 13:00:44;;;;;;;2.70;2.50;;;;;;;11.03;77.12;97505.01;105822;1256;61160;-29
2023/10/28 13:03:12;;;;;;;3.10;2.80;;;;;;;10.88;78.10;97515.48;105685;1254;61128;-29
2023/10/28 13:05:40;;;;;;;2.20;1.80;;;;;;;10.92;78.26;97519.73;105665;1254;73814;-29
2023/10/28 13:08:07;;;;;;;3.10;2.40;;;;;;;11.34;76.96;97531.42;105772;1255;74240;-29
2023/10/28 13:10:34;;;;;;;3.80;2.60;;;;;;;11.37;75.95;97522.73;105716;1254;72664;-29
2023/10/28 13:13:03;;;;;;;3.20;2.40;;;;;;;11.32;75.59;97514.97;105544;1257;61121;-29
2023/10/28 13:15:31;;;;;;;2.60;2.10;;;;;;;11.13;76.38;97497.52;105829;1254;61164;-29
2023/10/28 13:17:58;;;;;;;4.20;2.50;;;;;;;10.99;76.95;97516.58;105731;1255;73789;-29
2023/10/28 13:20:27;;;;;;;3.70;1.90;;;;;;;10.88;77.16;97504.45;105858;1256;74109;-29
2023/10/28 13:22:54;;;;;;;2.10;1.80;;;;;;;11.12;76.87;97526.88;105706;1257;72972;-29
2023/10/28 13:25:21;;;;;;;2.50;1.70;;;;;;;11.34;76.08;97519.22;105703;1255;61052;-29
2023/10/28 13:27:48;;;;;;;2.20;2.00;;;;;;;11.35;75.76;97525.29;105868;1257;61123;-29
2023/10/28 13:30:16;;;;;;;3.00;2.40;;;;;;;11.22;75.82;97528.23;105918;1254;72868;-29
2023/10/28 13:32:44;;;;;;;2.70;2.30;;;;;;;11.09;76.59;97541.23;105852;1254;74325;-28
2023/10/28 13:35:22;;;;;;;4.00;2.10;;;;;;;11.01;76.27;97528.23;105807;1259;72676;-29
2023/10/28 13:37:50;;;;;;;1.40;1.30;;;;;;;10.91;76.50;97531.17;105693;1254;61613;-28
2023/10/28 13:40:18;;;;;;;4.60;1.90;;;;;;;11.25;74.42;97524.63;105651;1257;61102;-28
2023/10/28 13:42:45;;;;;;;2.00;1.70;;;;;;;11.44;73.36;97531.75;105547;1254;74148;-27
2023/10/28 13:45:13;;;;;;;2.00;1.80;;;;;;;11.48;73.84;97543.69;105279;1260;74300;-27
2023/10/28 13:47:42;;;;;;;2.10;1.70;;;;;;;11.37;74.11;97543.30;105685;1254;73126;-27
2023/10/28 13:50:09;;;;;;;5.70;1.90;;;;;;;11.18;73.88;97544.77;105612;1260;60991;-27
2023/10/28 13:52:38;;;;;;;2.20;1.80;;;;;;;11.07;74.53;97550.81;105519;1254;61167;-27
2023/10/28 13:55:06;;;;;;;1.90;1.70;;;;;;;10.95;75.61;97562.13;105670;1254;74550;-27
2023/10/28 13:57:33;;;;;;;1.30;1.10;;;;;;;10.98;75.54;97560.81;105693;1254;74146;-27
2023/10/28 14:00:05;;;;;;;1.60;1.30;;;;;;;11.40;74.20;97571.14;105740;1254;72659;-27
2023/10/28 14:02:33;;;;;;;3.40;1.60;;;;;;;11.43;73.65;97567.10;105846;1254;61173;-27
2023/10/28 14:05:01;;;;;;;2.20;1.30;;;;;;;11.37;73.35;97572.06;105531;1257;61211;-27
2023/10/28 14:07:28;;;;;;;2.00;1.60;;;;;;;11.28;73.94;97576.57;105668;1259;73753;-27
2023/10/28 14:09:56;;;;;;;1.60;1.30;;;;;;;11.13;75.07;97584.86;105833;1257;74657;-27
2023/10/28 14:12:25;;;;;;;1.60;1.30;;;;;;;11.01;75.72;97586.17;105629;1260;71505;-27
2023/10/28 14:14:52;;;;;;;1.20;1.00;;;;;;;10.90;76.13;97588.23;105513;1258;61159;-28
2023/10/28 14:17:19;;;;;;;1.70;1.30;;;;;;;11.13;75.33;97582.65;105770;1256;61135;-27
2023/10/28 14:19:46;;;;;;;1.80;1.40;;;;;;;11.46;74.14;97596.19;105872;1254;73882;-27
2023/10/28 14:22:14;;;;;;;2.90;1.40;;;;;;;11.47;74.09;97603.74;105912;1254;74309;-27
2023/10/28 14:24:41;;;;;;;3.00;1.60;;;;;;;11.37;74.48;97613.41;105707;1257;72621;-27
2023/10/28 14:27:08;;;;;;;2.00;1.20;;;;;;;11.25;75.07;97598.08;105886;1254;61036;-27
2023/10/28 14:29:35;;;;;;;2.10;1.60;;;;;;;11.07;76.35;97608.92;105891;1256;61150;-28
2023/10/28 14:32:04;;;;;;;1.40;1.30;;;;;;;11.00;77.02;97617.57;105883;1255;74429;-27
2023/10/28 14:34:31;;;;;;;1.40;1.10;;;;;;;11.11;76.94;97610.47;105709;1255;73141;-27
2023/10/28 14:36:58;;;;;;;2.10;1.50;;;;;;;11.47;75.38;97609.11;105772;1254;72604;-27
2023/10/28 14:39:28;;;;;;;2.30;1.30;;;;;;;11.57;74.80;97618.30;105640;1254;61627;-28
2023/10/28 14:41:55;;;;;;;4.10;1.70;;;;;;;11.42;75.11;97619.48;105824;1259;61147;-27
2023/10/28 14:44:22;;;;;;;3.00;1.60;;;;;;;11.35;75.75;97629.11;105818;1256;73848;-27
2023/10/28 14:46:49;;;;;;;2.60;1.40;;;;;;;11.17;76.58;97625.11;105877;1256;74563;-27
2023/10/28 14:49:16;;;;;;;2.20;1.40;;;;;;;11.03;77.49;97634.88;105863;1254;72527;-28
2023/10/28 14:51:43;;;;;;;1.40;1.10;;;;;;;11.10;77.46;97637.98;105750;1254;61784;-27
2023/10/28 14:54:10;;;;;;;2.30;1.30;;;;;;;11.48;76.02;97631.00;105675;1257;61086;-30
2023/10/28 14:56:37;;;;;;;1.30;1.20;;;;;;;11.60;75.55;97636.75;105889;1255;73815;-27
2023/10/28 14:59:06;;;;;;;2.20;1.50;;;;;;;11.50;75.83;97640.02;105910;1256;74031;-31
2023/10/28 15:01:33;;;;;;;1.80;1.60;;;;;;;11.38;76.87;97649.79;105706;1254;72570;-27
2023/10/28 15:04:01;;;;;;;2.00;1.80;;;;;;;11.20;78.01;97655.02;105525;1257;61130;-27
2023/10/28 15:06:28;;;;;;;1.90;1.20;;;;;;;11.05;79.28;97647.77;105829;1260;61146;-27
2023/10/28 15:08:55;;;;;;;1.80;1.50;;;;;;;11.27;79.21;97655.92;105518;1254;73720;-27
2023/10/28 15:11:22;;;;;;;1.10;0.90;;;;;;;11.52;78.62;97655.86;105565;1254;74567;-27
2023/10/28 15:13:50;;;;;;;2.00;1.60;;;;;;;11.50;79.50;97656.16;105534;1254;72338;-27
2023/10/28 15:16:18;;;;;;;2.20;1.60;;;;;;;11.17;82.62;97662.11;105651;1254;61056;-28
2023/10/28 15:18:45;;;;;;;2.80;2.00;;;;;;;10.89;86.41;97675.31;105756;1258;61177;-28
2023/10/28 15:21:16;;;;;;;1.40;1.10;;;;;;;10.76;88.00;97674.61;105812;1257;73784;-28
2023/10/28 15:23:43;;;;;;;2.60;1.70;;;;;;;11.06;86.64;97680.80;105732;1254;74228;-29
2023/10/28 15:26:13;;;;;;;4.50;1.70;;;;;;;11.15;86.47;97689.46;105734;1254;72648;-28
2023/10/28 15:28:41;;;;;;;2.30;1.70;;;;;;;11.06;87.07;97698.84;105638;1259;61195;-28
2023/10/28 15:31:13;;;;;;;3.00;1.70;;;;;;;10.72;89.20;97697.21;105739;1254;61061;-28
2023/10/28 15:33:41;;;;;;;2.80;1.40;;;;;;;10.54;91.31;97703.84;105902;1256;73687;-29
2023/10/28 15:36:10;;;;;;;2.10;1.40;;;;;;;10.88;89.82;97707.02;105496;1260;74355;-29
2023/10/28 15:38:38;;;;;;;1.80;1.60;;;;;;;11.05;88.38;97709.88;105462;1257;72715;-28
2023/10/28 15:41:09;;;;;;;2.80;2.00;;;;;;;11.06;88.22;97717.14;105329;1260;61823;-28
2023/10/28 15:43:40;;;;;;;2.00;1.50;;;;;;;10.89;88.96;97726.48;105618;1258;61082;-30
2023/10/28 15:46:12;;;;;;;2.60;2.20;;;;;;;10.71;90.36;97728.86;105677;1260;73648;-28
2023/10/28 15:48:40;;;;;;;3.90;2.80;;;;;;;10.61;91.01;97730.77;105760;1258;74181;-30
2023/10/28 15:51:10;;;;;;;1.80;1.50;;;;;;;10.98;88.56;97738.45;105713;1257;72723;-28
2023/10/28 15:53:39;;;;;;;2.10;1.90;;;;;;;11.09;87.22;97739.70;105594;1260;61052;-29
2023/10/28 15:56:13;;;;;;;2.70;2.00;;;;;;;11.00;87.84;97749.70;105474;1252;61211;-29
2023/10/28 15:58:41;;;;;;;2.00;1.60;;;;;;;10.82;89.17;97751.70;105616;1259;73698;-28
2023/10/28 16:01:08;;;;;;;1.50;1.20;;;;;;;10.66;90.04;97753.17;105691;1257;74324;-29
2023/10/28 16:03:36;;;;;;;2.50;1.30;;;;;;;10.90;88.88;97753.27;105655;1259;72502;-28
2023/10/28 16:06:11;;;;;;;2.30;1.60;;;;;;;11.21;86.62;97758.95;105572;1254;61048;-29
2023/10/28 16:08:39;;;;;;;4.40;1.90;;;;;;;11.17;86.73;97766.13;105674;1259;61570;-28
2023/10/28 16:11:06;;;;;;;1.80;1.60;;;;;;;11.03;87.44;97770.59;105702;1259;73675;-28
2023/10/28 16:13:35;;;;;;;3.30;2.40;;;;;;;10.78;89.13;97775.05;105914;1257;74401;-28
2023/10/28 16:16:03;;;;;;;3.00;1.40;;;;;;;10.67;90.44;97779.27;105768;1253;72655;-28
2023/10/28 16:18:30;;;;;;;2.00;1.60;;;;;;;11.00;89.13;97787.42;105580;1257;62792;-28
2023/10/28 16:21:00;;;;;;;2.90;1.80;;;;;;;11.21;87.65;97788.84;105712;1257;61230;-28
2023/10/28 16:23:28;;;;;;;2.50;2.10;;;;;;;11.01;88.29;97783.13;105662;1259;74447;-28
2023/10/28 16:25:56;;;;;;;2.10;1.90;;;;;;;10.82;89.64;97789.85;105898;1257;74389;-28
2023/10/28 16:28:23;;;;;;;3.10;2.10;;;;;;;10.63;90.79;97791.82;105771;1257;71884;-28
2023/10/28 16:30:52;;;;;;;1.80;1.40;;;;;;;10.56;92.06;97793.91;105696;1256;61905;-28
2023/10/28 16:33:19;;;;;;;2.30;1.90;;;;;;;10.97;89.35;97797.60;105546;1252;61185;-28
2023/10/28 16:35:47;;;;;;;2.90;2.30;;;;;;;11.16;87.86;97795.09;105588;1256;74227;-29
2023/10/28 16:38:14;;;;;;;1.90;1.50;;;;;;;11.06;88.17;97795.77;105529;1270;74660;-28
2023/10/28 16:40:58;;;;;;;2.90;2.40;;;;;;;10.78;90.17;97803.30;105657;1260;72880;-29
2023/10/28 16:43:25;;;;;;;3.30;1.70;;;;;;;10.61;91.68;97801.92;105586;1255;61178;-28
2023/10/28 16:45:59;;;;;;;2.90;1.80;;;;;;;10.58;93.00;97801.16;105610;1259;61138;-28
2023/10/28 16:48:27;;;;;;;3.50;1.80;;;;;;;11.02;90.14;97803.61;105704;1255;73927;-28
2023/10/28 16:50:54;;;;;;;2.20;2.00;;;;;;;11.16;87.84;97805.04;105927;1256;75072;-29
2023/10/28 16:53:25;;;;;;;3.60;2.30;;;;;;;11.07;88.03;97799.64;105489;1254;71620;-29
2023/10/28 16:56:03;;;;;;;2.00;1.90;;;;;;;10.90;89.38;97809.27;105796;1256;61153;-29
2023/10/28 16:58:31;;;;;;;4.80;1.60;;;;;;;10.64;90.92;97817.06;105558;1261;61411;-29
2023/10/28 17:01:01;;;;;;;2.30;1.80;;;;;;;10.66;91.31;97818.91;105885;1256;73552;-29
2023/10/28 17:03:32;;;;;;;2.20;1.70;;;;;;;11.07;88.82;97818.36;105638;1260;74321;-29
2023/10/28 17:06:06;;;;;;;2.10;1.90;;;;;;;11.23;87.27;97820.60;105666;1255;73360;-29
2023/10/28 17:08:34;;;;;;;3.00;2.30;;;;;;;11.14;87.39;97819.27;105860;1256;61152;-29
2023/10/28 17:11:03;;;;;;;4.70;2.60;;;;;;;10.93;88.36;97820.39;105688;1264;61199;-29
2023/10/28 17:13:31;;;;;;;3.60;2.60;;;;;;;10.68;90.06;97821.82;105639;1260;74470;-29
2023/10/28 17:15:58;;;;;;;3.00;2.10;;;;;;;10.59;90.97;97818.55;105668;1260;74391;-29
2023/10/28 17:18:25;;;;;;;3.60;1.80;;;;;;;11.11;89.09;97814.48;105435;1260;71700;-29
2023/10/28 17:20:53;;;;;;;5.60;2.30;;;;;;;11.54;86.61;97818.23;105551;1254;61080;-29
2023/10/28 17:23:20;;;;;;;2.30;2.00;;;;;;;11.44;86.22;97814.32;105621;1259;61148;-29
2023/10/28 17:25:47;;;;;;;2.10;1.80;;;;;;;11.24;86.79;97819.30;105672;1256;74578;-29
2023/10/28 17:28:15;;;;;;;3.60;1.70;;;;;;;11.03;87.60;97818.82;105706;1257;74481;-29
2023/10/28 17:30:44;;;;;;;2.40;1.40;;;;;;;10.79;89.08;97824.72;105599;1254;71714;-29
2023/10/28 17:33:11;;;;;;;1.70;1.60;;;;;;;11.07;88.57;97823.95;105605;1260;61042;-29
2023/10/28 17:35:42;;;;;;;2.30;1.60;;;;;;;11.34;87.11;97823.66;105850;1256;61122;-29
2023/10/28 17:38:10;;;;;;;3.00;2.10;;;;;;;11.20;87.27;97821.31;105731;1259;73874;-29
2023/10/28 17:40:38;;;;;;;2.80;1.80;;;;;;;10.97;87.86;97819.48;105673;1259;74415;-29
2023/10/28 17:43:05;;;;;;;2.00;1.80;;;;;;;10.74;89.34;97820.18;105879;1256;72771;-29
2023/10/28 17:45:32;;;;;;;1.80;1.10;;;;;;;10.61;90.46;97819.43;105856;1254;61858;-29
2023/10/28 17:48:01;;;;;;;2.80;1.20;;;;;;;11.04;89.49;97821.14;105863;1256;61116;-29
2023/10/28 17:50:29;;;;;;;2.60;1.60;;;;;;;11.41;86.95;97828.79;105546;1257;72104;-29
2023/10/28 17:52:57;;;;;;;2.10;1.70;;;;;;;11.36;86.21;97827.31;105482;1259;74383;-29
2023/10/28 17:55:24;;;;;;;3.20;1.40;;;;;;;11.14;86.72;97824.97;105690;1255;73141;-29
2023/10/28 17:57:51;;;;;;;2.10;1.60;;;;;;;10.90;87.42;97832.88;105643;1259;61141;-29
2023/10/28 18:00:21;;;;;;;2.60;1.90;;;;;;;10.59;89.27;97836.25;105617;1254;61086;-29
2023/10/28 18:02:48;;;;;;;1.50;1.00;;;;;;;10.38;90.88;97839.24;105656;1262;72816;-29